Time;durP1;ratioP1;P1;durP2;ratioP2;P2;SDS_P1;SDS_P2;PMS_P1;PMS_P2;Temp;Humidity;BMP_temperature;BMP_pressure;BME280_temperature;BME280_humidity;BME280_pressure;Samples;Min_cycle;Max_cycle;Signal;HPM_P1;HPM_P2
2022/01/04 00:01:03;;;;;;;4.85;1.77;;;20.10;56.70;;;;;;5127748;27;20047;-72
2022/01/04 00:03:29;;;;;;;5.10;1.50;;;20.10;56.60;;;;;;5124944;27;20048;-70
2022/01/04 00:05:54;;;;;;;5.03;1.67;;;20.10;56.60;;;;;;5126993;27;20054;-71
2022/01/04 00:08:20;;;;;;;5.38;1.17;;;20.10;56.60;;;;;;5128605;27;20039;-72
2022/01/04 00:10:46;;;;;;;4.97;1.42;;;20.10;56.60;;;;;;5126781;27;20070;-73
2022/01/04 00:13:23;;;;;;;5.38;1.52;;;20.10;56.50;;;;;;5122284;27;20175;-73
2022/01/04 00:15:55;;;;;;;5.50;1.50;;;20.10;56.60;;;;;;5125003;27;20442;-72
2022/01/04 00:18:23;;;;;;;5.40;1.67;;;20.10;56.50;;;;;;5125524;27;20027;-73
2022/01/04 00:20:51;;;;;;;4.00;1.42;;;20.10;56.50;;;;;;5126003;27;20138;-71
2022/01/04 00:23:17;;;;;;;8.02;1.67;;;20.10;56.50;;;;;;5124637;27;20031;-73
2022/01/04 00:25:44;;;;;;;5.13;1.35;;;20.00;56.40;;;;;;5108058;27;20100;-71
2022/01/04 00:28:10;;;;;;;4.55;1.27;;;20.00;56.40;;;;;;5122396;27;20046;-73
2022/01/04 00:30:39;;;;;;;5.70;1.52;;;20.00;56.40;;;;;;5126856;27;20433;-70
2022/01/04 00:33:07;;;;;;;6.07;1.40;;;20.00;56.40;;;;;;5105711;27;20050;-71
2022/01/04 00:35:33;;;;;;;4.88;1.45;;;20.00;56.30;;;;;;5108061;27;20039;-71
2022/01/04 00:38:00;;;;;;;6.22;1.35;;;20.00;56.30;;;;;;5124588;27;20097;-71
2022/01/04 00:40:25;;;;;;;5.53;1.35;;;20.00;56.30;;;;;;5125524;27;20031;-71
2022/01/04 00:42:52;;;;;;;3.75;1.38;;;20.00;56.30;;;;;;5105766;27;20436;-73
2022/01/04 00:45:19;;;;;;;6.78;1.60;;;20.00;56.30;;;;;;5123419;27;20031;-72
2022/01/04 00:50:20;;;;;;;6.30;1.40;;;20.00;56.30;;;;;;5123986;27;20892;-72
2022/01/04 00:52:45;;;;;;;5.53;1.65;;;19.90;56.20;;;;;;5124684;27;20126;-70
2022/01/04 00:55:11;;;;;;;7.07;1.65;;;19.90;56.20;;;;;;5124109;27;20211;-70
2022/01/04 00:57:37;;;;;;;4.75;1.45;;;19.90;56.60;;;;;;5123490;27;20039;-72
2022/01/04 01:00:05;;;;;;;5.43;1.50;;;19.90;56.20;;;;;;5124947;27;20096;-72
2022/01/04 01:02:30;;;;;;;4.63;1.58;;;19.90;56.20;;;;;;5106007;27;20103;-73
2022/01/04 01:04:56;;;;;;;5.00;1.40;;;19.90;56.20;;;;;;5103979;27;20036;-72
2022/01/04 01:07:22;;;;;;;5.50;1.38;;;19.90;56.20;;;;;;5124053;27;20163;-72
2022/01/04 01:12:32;;;;;;;6.65;1.58;;;19.90;56.10;;;;;;5123430;27;20050;-73
2022/01/04 01:14:57;;;;;;;4.63;1.38;;;19.90;56.10;;;;;;5124994;27;20028;-72
2022/01/04 01:17:23;;;;;;;4.97;1.33;;;19.90;56.00;;;;;;5126046;27;20745;-73
2022/01/04 01:19:49;;;;;;;4.22;1.40;;;20.00;56.00;;;;;;5123841;27;20038;-72
2022/01/04 01:22:15;;;;;;;5.70;1.50;;;19.90;55.90;;;;;;5125060;27;20042;-73
2022/01/04 01:24:40;;;;;;;6.18;1.70;;;19.90;55.90;;;;;;5123015;27;20051;-72
2022/01/04 01:27:06;;;;;;;5.13;1.60;;;20.00;55.90;;;;;;5125730;27;20068;-72
2022/01/04 01:29:34;;;;;;;4.88;1.50;;;20.00;55.90;;;;;;5121501;27;20054;-71
2022/01/04 01:32:00;;;;;;;3.55;1.40;;;20.00;55.90;;;;;;5106929;27;20048;-72
2022/01/04 01:34:26;;;;;;;7.40;1.48;;;20.00;55.90;;;;;;5105059;27;20433;-73
2022/01/04 01:36:52;;;;;;;4.85;1.70;;;20.00;55.90;;;;;;5125424;27;20356;-73
2022/01/04 01:39:17;;;;;;;8.57;1.40;;;20.00;55.80;;;;;;5123970;27;20031;-72
2022/01/04 01:41:44;;;;;;;5.85;1.48;;;20.00;55.80;;;;;;5106437;27;20172;-70
2022/01/04 01:44:10;;;;;;;5.07;1.42;;;20.00;55.80;;;;;;5123092;27;20072;-72
2022/01/04 01:46:38;;;;;;;;;;;20.00;55.80;;;;;;5105187;27;20058;-73
2022/01/04 01:49:04;;;;;;;7.80;1.52;;;20.00;55.70;;;;;;5106272;27;19923;-73
2022/01/04 01:51:31;;;;;;;7.57;1.58;;;20.00;55.80;;;;;;5122375;27;20651;-68
2022/01/04 01:53:58;;;;;;;4.68;1.13;;;20.00;55.70;;;;;;5123497;27;20070;-72
2022/01/04 01:56:23;;;;;;;4.10;1.08;;;20.00;55.70;;;;;;5107076;27;20039;-70
2022/01/04 01:58:50;;;;;;;4.97;1.33;;;20.00;55.60;;;;;;5087810;27;20034;-71
2022/01/04 02:01:16;;;;;;;6.05;1.40;;;20.00;55.70;;;;;;5055407;28;20037;-71
2022/01/04 02:03:41;;;;;;;5.70;1.38;;;20.00;55.70;;;;;;5040882;28;20123;-70
2022/01/04 02:06:07;;;;;;;6.32;1.58;;;20.00;55.70;;;;;;5042099;28;20186;-71
2022/01/04 02:08:33;;;;;;;5.03;1.48;;;20.00;55.70;;;;;;5041053;28;20048;-71
2022/01/04 02:10:59;;;;;;;6.13;1.50;;;20.00;55.60;;;;;;5040876;28;20048;-71
2022/01/04 02:13:25;;;;;;;5.53;1.48;;;20.10;55.70;;;;;;5040141;28;20112;-74
2022/01/04 02:15:52;;;;;;;5.10;1.20;;;20.10;55.80;;;;;;5036466;28;20136;-67
2022/01/04 02:18:17;;;;;;;4.10;1.40;;;20.10;55.70;;;;;;5046016;28;20037;-74
2022/01/04 02:20:43;;;;;;;4.78;1.40;;;20.10;55.70;;;;;;5043440;28;20038;-69
2022/01/04 02:23:09;;;;;;;7.85;1.58;;;20.10;55.70;;;;;;5045972;28;20049;-72
2022/01/04 02:25:35;;;;;;;6.05;1.55;;;20.10;55.70;;;;;;5044206;28;20033;-77
2022/01/04 02:28:00;;;;;;;6.85;1.60;;;20.10;55.70;;;;;;5042648;28;20033;-76
2022/01/04 02:30:27;;;;;;;4.20;1.58;;;20.10;55.70;;;;;;5033078;28;20123;-77
2022/01/04 02:32:53;;;;;;;5.15;1.25;;;20.00;55.60;;;;;;5045666;28;20659;-76
2022/01/04 02:35:21;;;;;;;3.95;1.38;;;20.10;55.60;;;;;;5043543;28;20071;-75
2022/01/04 02:37:47;;;;;;;4.95;1.10;;;20.10;55.50;;;;;;5043773;28;20053;-74
2022/01/04 02:40:13;;;;;;;6.35;1.17;;;20.10;55.60;;;;;;5040364;28;20044;-74
2022/01/04 02:42:39;;;;;;;4.97;1.35;;;20.10;55.60;;;;;;5044128;28;20502;-73
2022/01/04 02:45:06;;;;;;;6.97;1.58;;;20.10;55.50;;;;;;5045289;28;20071;-75
2022/01/04 02:47:32;;;;;;;5.78;1.38;;;20.10;55.40;;;;;;5044094;28;20087;-74
2022/01/04 02:49:57;;;;;;;4.85;1.30;;;20.10;55.50;;;;;;5045156;28;20053;-74
2022/01/04 02:52:24;;;;;;;3.95;1.23;;;20.10;55.50;;;;;;5044253;28;20206;-73
2022/01/04 02:54:50;;;;;;;7.32;1.90;;;20.10;55.40;;;;;;5042824;28;20139;-74
2022/01/04 02:57:16;;;;;;;4.57;1.17;;;20.00;55.40;;;;;;5046170;28;20048;-73
2022/01/04 02:59:41;;;;;;;5.22;1.58;;;20.00;55.40;;;;;;5043750;28;20069;-74
2022/01/04 03:02:07;;;;;;;4.65;1.45;;;20.00;55.40;;;;;;5045911;28;20059;-74
2022/01/04 03:04:32;;;;;;;8.43;1.40;;;20.00;55.40;;;;;;5043891;28;20066;-73
2022/01/04 03:06:58;;;;;;;7.60;1.42;;;20.00;55.40;;;;;;5038053;28;20162;-72
2022/01/04 03:09:23;;;;;;;2.92;1.05;;;20.00;55.40;;;;;;5043871;28;20075;-74
2022/01/04 03:11:49;;;;;;;4.97;1.40;;;20.00;55.40;;;;;;5045126;28;20071;-69
2022/01/04 03:14:15;;;;;;;4.82;1.25;;;20.00;55.30;;;;;;5037031;28;20102;-74
2022/01/04 03:16:40;;;;;;;5.15;1.58;;;20.00;55.30;;;;;;5038966;28;20045;-72
2022/01/04 03:19:06;;;;;;;6.65;1.55;;;20.00;55.30;;;;;;5045130;28;20045;-70
2022/01/04 03:21:42;;;;;;;7.75;1.83;;;20.00;55.30;;;;;;5037110;28;20041;-74
2022/01/04 03:24:10;;;;;;;5.72;1.55;;;20.00;55.30;;;;;;5045907;28;20095;-75
2022/01/04 03:26:36;;;;;;;6.30;1.70;;;20.00;55.30;;;;;;5026303;28;20126;-72
2022/01/04 03:29:05;;;;;;;5.53;1.60;;;20.00;55.20;;;;;;5044637;28;20041;-74
2022/01/04 03:31:31;;;;;;;4.05;1.52;;;20.00;55.20;;;;;;5043795;28;20389;-73
2022/01/04 03:33:58;;;;;;;5.05;1.70;;;20.00;55.20;;;;;;5045507;28;20056;-72
2022/01/04 03:36:24;;;;;;;7.28;1.50;;;20.00;55.20;;;;;;5044590;28;20071;-72
2022/01/04 03:38:52;;;;;;;4.18;1.30;;;20.00;55.10;;;;;;5043712;28;20060;-73
2022/01/04 03:41:18;;;;;;;4.38;1.30;;;20.00;55.10;;;;;;5044181;28;20041;-73
2022/01/04 03:43:44;;;;;;;4.05;0.90;;;20.00;55.20;;;;;;5038034;28;20397;-73
2022/01/04 03:46:10;;;;;;;3.85;1.27;;;20.00;55.10;;;;;;5044710;28;20040;-74
2022/01/04 03:48:36;;;;;;;5.00;1.10;;;20.00;55.10;;;;;;5045782;28;20052;-74
2022/01/04 03:51:03;;;;;;;5.28;1.27;;;20.00;55.10;;;;;;5035630;28;20033;-74
2022/01/04 03:53:29;;;;;;;5.07;1.40;;;20.00;55.00;;;;;;5043961;28;20067;-71
2022/01/04 03:55:55;;;;;;;4.25;1.48;;;20.00;55.00;;;;;;5041905;28;20037;-75
2022/01/04 03:58:21;;;;;;;3.08;1.20;;;20.00;55.10;;;;;;5044863;28;20049;-73
2022/01/04 04:00:46;;;;;;;5.07;1.23;;;20.00;55.00;;;;;;5041436;28;20033;-70
2022/01/04 04:03:12;;;;;;;4.97;1.52;;;20.00;55.00;;;;;;5045438;28;20029;-70
2022/01/04 04:05:38;;;;;;;5.22;1.65;;;20.00;55.00;;;;;;5042656;28;20400;-74
2022/01/04 04:08:03;;;;;;;6.60;1.40;;;20.00;55.00;;;;;;5042219;28;20148;-74
2022/01/04 04:10:29;;;;;;;5.03;1.50;;;20.00;54.90;;;;;;5043356;28;20044;-74
2022/01/04 04:12:55;;;;;;;5.50;1.60;;;20.10;55.00;;;;;;5040956;28;20041;-75
2022/01/04 04:15:20;;;;;;;3.80;1.50;;;20.10;55.00;;;;;;5043208;28;20077;-74
2022/01/04 04:17:46;;;;;;;6.18;1.35;;;20.00;54.90;;;;;;5026187;28;20044;-71
2022/01/04 04:20:12;;;;;;;4.88;1.10;;;20.10;55.00;;;;;;5043847;28;20044;-72
2022/01/04 04:22:39;;;;;;;4.35;1.08;;;20.10;54.90;;;;;;5042382;28;20397;-69
2022/01/04 04:25:06;;;;;;;6.03;1.20;;;20.10;54.90;;;;;;5043401;28;20044;-74
2022/01/04 04:27:32;;;;;;;2.87;1.13;;;20.10;54.90;;;;;;5042134;28;20040;-72
2022/01/04 04:29:58;;;;;;;6.07;1.50;;;20.00;55.60;;;;;;5035088;28;21073;-72
2022/01/04 04:32:23;;;;;;;3.13;1.10;;;20.10;54.90;;;;;;5042545;28;20044;-74
2022/01/04 04:34:49;;;;;;;4.28;1.00;;;20.10;54.80;;;;;;5041685;28;21164;-74
2022/01/04 04:37:15;;;;;;;2.25;1.10;;;20.10;54.80;;;;;;5043048;28;20045;-72
2022/01/04 04:39:43;;;;;;;4.38;1.30;;;20.10;54.80;;;;;;5042569;28;20082;-74
2022/01/04 04:42:09;;;;;;;4.90;1.67;;;20.10;54.80;;;;;;5044094;28;20037;-74
2022/01/04 04:44:34;;;;;;;2.90;1.00;;;20.10;54.80;;;;;;5041940;28;20076;-74
2022/01/04 04:47:03;;;;;;;4.25;1.23;;;20.10;54.80;;;;;;5044150;28;20040;-74
2022/01/04 04:49:29;;;;;;;5.30;1.27;;;20.10;54.80;;;;;;5042746;28;20137;-73
2022/01/04 04:51:57;;;;;;;3.88;1.00;;;20.10;54.70;;;;;;5033655;28;20037;-74
2022/01/04 04:54:23;;;;;;;6.85;1.50;;;20.10;54.70;;;;;;5042120;28;20114;-74
2022/01/04 04:56:48;;;;;;;4.10;1.15;;;20.10;54.70;;;;;;5042670;28;20033;-72
2022/01/04 04:59:14;;;;;;;5.80;1.73;;;20.10;54.70;;;;;;5042818;28;20121;-74
2022/01/04 05:01:39;;;;;;;4.00;1.35;;;20.10;54.70;;;;;;5041021;28;20435;-75
2022/01/04 05:04:05;;;;;;;3.75;1.40;;;20.10;54.70;;;;;;5041641;28;20103;-74
2022/01/04 05:06:31;;;;;;;4.78;1.27;;;20.10;54.70;;;;;;5041209;28;20497;-71
2022/01/04 05:08:56;;;;;;;3.17;1.13;;;20.10;54.70;;;;;;5044031;28;20041;-72
2022/01/04 05:11:22;;;;;;;3.78;1.08;;;20.10;54.60;;;;;;5037167;28;20426;-74
2022/01/04 05:13:47;;;;;;;3.67;1.05;;;20.10;54.60;;;;;;5041666;28;20744;-75
2022/01/04 05:16:13;;;;;;;4.60;1.20;;;20.10;54.70;;;;;;5043138;28;20110;-74
2022/01/04 05:18:38;;;;;;;4.07;1.30;;;20.10;54.60;;;;;;5040714;28;20162;-72
2022/01/04 05:21:07;;;;;;;5.30;1.33;;;20.10;54.60;;;;;;5042902;28;20146;-73
2022/01/04 05:23:33;;;;;;;5.13;1.40;;;20.10;54.60;;;;;;5042203;28;20059;-72
2022/01/04 05:25:58;;;;;;;5.60;1.42;;;20.10;54.60;;;;;;5028932;28;20450;-74
2022/01/04 05:28:24;;;;;;;4.18;1.30;;;20.10;54.60;;;;;;5042002;28;20087;-73
2022/01/04 05:30:50;;;;;;;4.85;1.27;;;20.10;54.50;;;;;;5041443;28;20037;-73
2022/01/04 05:33:16;;;;;;;3.17;1.20;;;20.10;54.60;;;;;;5043105;28;20041;-72
2022/01/04 05:35:42;;;;;;;3.00;1.10;;;20.10;54.50;;;;;;5042347;28;20128;-73
2022/01/04 05:38:07;;;;;;;5.05;1.20;;;20.10;54.50;;;;;;5033674;28;20124;-72
2022/01/04 05:40:34;;;;;;;5.93;1.45;;;20.10;54.50;;;;;;5043717;28;20040;-73
2022/01/04 05:43:00;;;;;;;4.18;1.23;;;20.10;54.50;;;;;;5042770;28;20047;-72
2022/01/04 05:45:25;;;;;;;4.50;1.33;;;20.10;54.50;;;;;;5031127;28;20397;-74
2022/01/04 05:47:51;;;;;;;4.88;1.40;;;20.20;54.60;;;;;;5040977;28;20056;-71
2022/01/04 05:50:16;;;;;;;3.40;1.20;;;20.20;54.50;;;;;;5046820;28;20041;-74
2022/01/04 05:52:42;;;;;;;5.55;1.30;;;20.20;54.50;;;;;;5045608;28;20033;-75
2022/01/04 05:55:08;;;;;;;4.03;1.20;;;20.20;54.50;;;;;;5046220;28;20033;-73
2022/01/04 05:57:34;;;;;;;3.78;1.58;;;20.20;54.50;;;;;;5035125;28;20033;-74
2022/01/04 06:00:00;;;;;;;5.95;1.58;;;20.10;54.40;;;;;;5047524;28;20126;-75
2022/01/04 06:02:26;;;;;;;3.45;1.17;;;20.20;54.50;;;;;;5044569;28;20751;-71
2022/01/04 06:04:52;;;;;;;5.45;1.67;;;20.10;54.50;;;;;;5042471;28;20122;-72
2022/01/04 06:07:17;;;;;;;3.20;1.30;;;20.10;54.40;;;;;;5045262;28;20477;-74
2022/01/04 06:09:46;;;;;;;4.20;1.30;;;20.20;54.40;;;;;;5046109;28;20075;-72
2022/01/04 06:14:50;;;;;;;5.13;1.50;;;20.20;54.40;;;;;;5046136;28;20119;-73
2022/01/04 06:15:12;;;;;;;3.78;1.17;;;20.20;54.40;;;;;;5042847;28;20066;-73
2022/01/04 06:17:43;;;;;;;4.75;1.38;;;20.10;54.40;;;;;;5047219;28;20048;-75
2022/01/04 06:20:15;;;;;;;4.53;1.27;;;20.10;54.40;;;;;;5044318;28;20049;-74
2022/01/04 06:22:41;;;;;;;3.28;1.25;;;20.10;54.40;;;;;;5045055;28;20488;-74
2022/01/04 06:25:09;;;;;;;4.78;1.70;;;20.20;55.30;;;;;;5045490;28;20036;-74
2022/01/04 06:27:35;;;;;;;;;;;20.20;54.40;;;;;;5038948;28;20500;-74
2022/01/04 06:30:01;;;;;;;5.47;1.50;;;20.10;54.40;;;;;;5041647;28;19940;-71
2022/01/04 06:32:27;;;;;;;6.35;1.30;;;20.20;54.40;;;;;;5041849;28;20130;-77
2022/01/04 06:34:53;;;;;;;6.78;1.45;;;20.20;54.60;;;;;;5043728;28;20107;-75
2022/01/04 06:37:19;;;;;;;6.10;1.40;;;20.20;54.60;;;;;;5038206;28;20041;-70
2022/01/04 06:39:45;;;;;;;4.50;1.38;;;20.20;54.70;;;;;;5031326;28;20040;-73
2022/01/04 06:42:11;;;;;;;4.15;1.30;;;20.20;54.90;;;;;;5043256;28;20106;-75
2022/01/04 06:44:38;;;;;;;8.68;1.42;;;20.20;54.90;;;;;;5033019;28;20087;-72
2022/01/04 06:47:04;;;;;;;4.05;1.30;;;20.20;55.00;;;;;;5044597;28;20057;-71
2022/01/04 06:49:30;;;;;;;5.20;1.52;;;20.20;55.00;;;;;;5032623;28;20060;-72
2022/01/04 06:51:56;;;;;;;5.95;1.83;;;20.20;55.00;;;;;;5046534;28;20084;-73
2022/01/04 06:54:22;;;;;;;5.75;1.50;;;20.20;55.10;;;;;;5044024;28;20033;-71
2022/01/04 06:56:49;;;;;;;5.10;1.50;;;20.20;55.10;;;;;;5045892;28;20029;-72
2022/01/04 06:59:16;;;;;;;4.50;1.40;;;20.20;55.10;;;;;;5044476;28;20506;-71
2022/01/04 07:01:42;;;;;;;5.53;1.50;;;20.20;55.10;;;;;;5042947;28;20041;-70
2022/01/04 07:04:08;;;;;;;5.63;1.30;;;20.20;55.10;;;;;;5033478;28;20570;-68
2022/01/04 07:06:34;;;;;;;7.72;1.60;;;20.20;55.10;;;;;;5040663;28;20064;-73
2022/01/04 07:09:00;;;;;;;3.95;1.52;;;20.30;55.10;;;;;;5042757;28;20429;-77
2022/01/04 07:11:25;;;;;;;7.00;1.75;;;20.30;55.10;;;;;;5045141;28;20052;-75
2022/01/04 07:13:52;;;;;;;8.57;1.50;;;20.30;55.00;;;;;;5038456;28;20041;-72
2022/01/04 07:16:18;;;;;;;4.45;1.58;;;20.30;55.00;;;;;;5043676;28;20048;-70
2022/01/04 07:18:49;;;;;;;10.38;1.70;;;20.30;55.00;;;;;;5045151;28;20132;-71
2022/01/04 07:21:18;;;;;;;5.28;1.60;;;20.30;55.00;;;;;;5043840;28;20523;-71
2022/01/04 07:23:45;;;;;;;4.03;1.33;;;20.30;54.90;;;;;;5039249;28;20044;-69
2022/01/04 07:26:14;;;;;;;7.35;1.60;;;20.30;55.00;;;;;;5045678;28;20033;-69
2022/01/04 07:28:48;;;;;;;5.90;1.23;;;20.30;55.10;;;;;;5039053;28;20037;-71
2022/01/04 07:31:14;;;;;;;6.90;1.60;;;20.30;55.20;;;;;;5045435;28;20033;-74
2022/01/04 07:33:41;;;;;;;4.93;1.83;;;20.30;55.30;;;;;;5042765;28;20064;-74
2022/01/04 07:36:07;;;;;;;4.55;1.55;;;20.30;55.40;;;;;;5043293;28;20051;-72
2022/01/04 07:38:33;;;;;;;7.63;1.50;;;20.30;55.50;;;;;;5042698;28;20124;-73
2022/01/04 07:40:59;;;;;;;5.63;1.67;;;20.30;55.60;;;;;;5036820;28;20127;-71
2022/01/04 07:43:24;;;;;;;6.55;1.77;;;20.30;55.50;;;;;;5043158;28;20496;-72
2022/01/04 07:45:50;;;;;;;7.07;1.80;;;20.30;55.60;;;;;;5039887;28;20045;-73
2022/01/04 07:48:17;;;;;;;6.38;1.50;;;20.30;55.60;;;;;;5043884;28;20045;-71
2022/01/04 07:50:42;;;;;;;9.90;1.80;;;20.30;55.60;;;;;;5036211;28;20052;-70
2022/01/04 07:53:08;;;;;;;6.65;1.70;;;20.30;55.60;;;;;;5035558;28;20099;-70
2022/01/04 07:55:34;;;;;;;7.70;1.60;;;20.30;55.70;;;;;;5037689;28;20045;-72
2022/01/04 07:58:00;;;;;;;5.22;1.60;;;20.40;55.80;;;;;;5040500;28;20045;-70
2022/01/04 08:00:26;;;;;;;3.83;1.60;;;20.40;55.80;;;;;;5039106;28;20052;-70
2022/01/04 08:02:53;;;;;;;5.97;1.45;;;20.40;55.80;;;;;;5041923;28;20037;-72
2022/01/04 08:05:20;;;;;;;7.38;1.77;;;20.40;55.70;;;;;;5041417;28;20114;-73
2022/01/04 08:07:45;;;;;;;8.07;1.85;;;20.40;55.70;;;;;;5039347;28;20153;-71
2022/01/04 08:10:12;;;;;;;5.53;1.80;;;20.40;55.70;;;;;;5038355;28;20571;-69
2022/01/04 08:12:39;;;;;;;4.50;1.70;;;20.40;55.80;;;;;;5024819;28;20045;-73
2022/01/04 08:15:06;;;;;;;3.80;1.80;;;20.40;55.70;;;;;;5041855;28;20029;-73
2022/01/04 08:17:31;;;;;;;3.60;1.60;;;20.40;55.80;;;;;;5039602;28;20551;-74
2022/01/04 08:19:58;;;;;;;3.15;1.60;;;20.40;55.70;;;;;;5041392;28;20053;-69
2022/01/04 08:22:24;;;;;;;5.47;1.88;;;20.40;55.70;;;;;;5041163;28;20496;-67
2022/01/04 08:24:49;;;;;;;8.00;2.50;;;20.40;55.60;;;;;;5037132;28;20037;-72
2022/01/04 08:27:15;;;;;;;6.18;1.88;;;20.40;55.60;;;;;;5022723;28;20044;-71
2022/01/04 08:29:42;;;;;;;6.07;1.75;;;20.40;55.60;;;;;;5042518;28;20124;-70
2022/01/04 08:32:08;;;;;;;7.57;2.00;;;20.40;55.60;;;;;;5055448;28;20138;-71
2022/01/04 08:34:35;;;;;;;5.40;1.70;;;20.40;55.70;;;;;;5039355;28;20123;-71
2022/01/04 08:37:01;;;;;;;3.72;1.73;;;20.40;55.80;;;;;;5039088;28;20123;-69
2022/01/04 08:39:27;;;;;;;5.05;1.50;;;20.40;55.70;;;;;;5042429;28;20123;-70
2022/01/04 08:41:59;;;;;;;4.32;1.60;;;20.40;55.70;;;;;;5041721;28;20056;-70
2022/01/04 08:44:25;;;;;;;4.93;1.83;;;20.40;55.60;;;;;;5038297;28;20053;-69
2022/01/04 08:46:52;;;;;;;11.52;1.60;;;20.40;55.60;;;;;;5040127;28;20052;-69
2022/01/04 08:49:18;;;;;;;4.13;1.50;;;20.40;55.60;;;;;;5042873;28;20053;-71
2022/01/04 08:51:43;;;;;;;7.13;1.65;;;20.40;55.80;;;;;;5040605;28;20044;-70
2022/01/04 08:54:09;;;;;;;4.72;1.70;;;20.40;55.90;;;;;;5042203;28;20665;-69
2022/01/04 08:56:35;;;;;;;6.03;1.60;;;20.40;56.00;;;;;;5040238;28;20057;-71
2022/01/04 08:59:03;;;;;;;4.63;1.88;;;20.40;55.90;;;;;;5038778;28;20059;-70
2022/01/04 09:01:29;;;;;;;5.20;1.40;;;20.40;55.80;;;;;;5038063;28;20049;-69
2022/01/04 09:03:55;;;;;;;4.03;1.65;;;20.40;55.80;;;;;;5039725;28;20630;-68
2022/01/04 09:06:22;;;;;;;4.80;1.50;;;20.40;55.70;;;;;;5038693;28;20045;-67
2022/01/04 09:08:48;;;;;;;10.05;1.70;;;20.40;55.70;;;;;;5041796;28;20049;-71
2022/01/04 09:11:17;;;;;;;8.38;1.80;;;20.40;55.80;;;;;;5043722;28;20478;-73
2022/01/04 09:13:44;;;;;;;7.43;1.70;;;20.40;55.80;;;;;;5041686;28;20789;-72
2022/01/04 09:18:54;;;;;;;5.55;1.60;;;20.40;55.80;;;;;;5039095;28;20049;-71
2022/01/04 09:21:28;;;;;;;5.28;1.52;;;20.30;55.70;;;;;;5039379;28;20398;-69
2022/01/04 09:23:57;;;;;;;4.40;1.55;;;20.40;55.70;;;;;;5042281;28;20123;-71
2022/01/04 09:26:23;;;;;;;;;;;20.40;55.60;;;;;;5044389;28;20072;-75
2022/01/04 09:28:49;;;;;;;3.05;1.55;;;20.40;55.60;;;;;;5044585;28;20431;-75
2022/01/04 09:31:15;;;;;;;4.53;1.40;;;20.40;55.60;;;;;;5044302;28;20045;-74
2022/01/04 09:33:41;;;;;;;6.07;1.63;;;20.40;55.60;;;;;;5042127;28;20572;-74
2022/01/04 09:36:07;;;;;;;4.10;1.60;;;20.40;55.60;;;;;;5045900;28;20396;-70
2022/01/04 09:38:36;;;;;;;2.92;1.58;;;20.40;55.60;;;;;;5046237;28;20052;-72
2022/01/04 09:41:02;;;;;;;6.85;1.58;;;20.40;55.60;;;;;;5043692;28;20076;-70
2022/01/04 09:43:28;;;;;;;7.50;1.63;;;20.30;55.50;;;;;;5042080;28;20041;-67
2022/01/04 09:45:56;;;;;;;4.57;1.60;;;20.30;55.40;;;;;;5045272;28;20041;-72
2022/01/04 09:48:22;;;;;;;;;;;20.30;55.20;;;;;;5044346;28;20153;-68
2022/01/04 09:50:48;;;;;;;7.22;1.70;;;20.30;54.90;;;;;;5042453;28;20074;-72
2022/01/04 09:53:19;;;;;;;5.60;1.70;;;20.30;55.10;;;;;;5043029;28;20118;-70
2022/01/04 09:55:47;;;;;;;8.45;1.63;;;20.30;55.00;;;;;;5035474;28;20041;-68
2022/01/04 09:58:12;;;;;;;6.53;1.50;;;20.30;55.80;;;;;;5040596;28;20434;-66
2022/01/04 10:00:38;;;;;;;7.80;1.50;;;20.30;55.00;;;;;;5039755;28;20156;-70
2022/01/04 10:03:14;;;;;;;9.07;1.33;;;20.30;55.00;;;;;;5046496;28;20253;-69
2022/01/04 10:05:42;;;;;;;6.35;1.35;;;20.30;55.00;;;;;;5041626;28;20157;-70
2022/01/04 10:08:10;;;;;;;6.13;1.42;;;20.30;55.00;;;;;;5034790;28;20072;-68
2022/01/04 10:10:37;;;;;;;6.13;1.55;;;20.40;55.10;;;;;;5058262;28;20136;-67
2022/01/04 10:13:09;;;;;;;5.15;1.50;;;20.40;55.10;;;;;;5043508;28;20041;-71
2022/01/04 10:15:46;;;;;;;3.05;1.38;;;20.40;55.10;;;;;;5039594;28;20648;-70
2022/01/04 10:18:14;;;;;;;3.80;1.40;;;20.40;55.10;;;;;;5043662;28;20041;-69
2022/01/04 10:20:46;;;;;;;5.18;1.42;;;20.40;55.10;;;;;;5038823;28;20104;-70
2022/01/04 10:23:17;;;;;;;9.32;1.50;;;20.40;55.00;;;;;;5041907;28;20076;-70
2022/01/04 10:25:47;;;;;;;4.32;1.33;;;20.40;55.00;;;;;;5042075;28;20041;-72
2022/01/04 10:28:35;;;;;;;1.92;0.95;;;20.40;55.10;;;;;;5046128;28;20043;-67
2022/01/04 10:31:03;;;;;;;;;;;20.40;55.10;;;;;;5044192;28;20492;-67
2022/01/04 10:33:31;;;;;;;2.33;1.20;;;20.30;55.00;;;;;;5042406;28;20424;-69
2022/01/04 10:35:57;;;;;;;3.00;1.48;;;20.30;55.00;;;;;;5044213;28;20056;-69
2022/01/04 10:38:28;;;;;;;3.50;1.42;;;20.30;55.00;;;;;;5042369;28;20140;-72
2022/01/04 10:41:21;;;;;;;3.67;1.35;;;20.40;55.10;;;;;;5038189;28;20076;-71
2022/01/04 10:43:56;;;;;;;4.10;1.15;;;20.40;55.10;;;;;;5042611;28;20049;-70
2022/01/04 10:46:35;;;;;;;3.17;1.60;;;20.40;55.10;;;;;;5043874;28;20040;-68
2022/01/04 10:49:12;;;;;;;5.28;1.30;;;20.40;55.10;;;;;;5045279;28;20032;-69
2022/01/04 10:51:38;;;;;;;5.85;1.35;;;20.40;55.10;;;;;;5042431;28;20041;-70
2022/01/04 10:54:06;;;;;;;6.95;1.25;;;20.40;55.10;;;;;;5044122;28;20083;-69
2022/01/04 10:56:35;;;;;;;2.85;1.40;;;20.30;55.10;;;;;;5043117;28;20421;-71
2022/01/04 10:59:05;;;;;;;2.17;1.08;;;20.40;55.20;;;;;;5042096;28;20131;-68
2022/01/04 11:01:42;;;;;;;6.07;1.27;;;20.40;55.20;;;;;;5043147;28;20044;-70
2022/01/04 11:04:16;;;;;;;3.53;1.10;;;20.40;55.30;;;;;;5040891;28;20038;-69
2022/01/04 11:06:42;;;;;;;2.80;1.30;;;20.40;55.30;;;;;;5042414;28;20499;-71
2022/01/04 11:09:09;;;;;;;4.70;1.33;;;20.40;55.30;;;;;;5041121;28;20477;-71
2022/01/04 11:11:35;;;;;;;5.10;1.50;;;20.40;55.30;;;;;;5045618;28;20057;-71
2022/01/04 11:14:01;;;;;;;3.38;1.20;;;20.40;55.20;;;;;;5041984;28;20147;-69
2022/01/04 11:16:29;;;;;;;2.22;1.15;;;20.40;55.10;;;;;;5040031;28;20076;-71
2022/01/04 11:18:56;;;;;;;4.50;1.38;;;20.40;55.00;;;;;;5044118;28;20041;-71
2022/01/04 11:21:32;;;;;;;2.15;0.90;;;20.30;54.90;;;;;;5041015;28;20048;-70
2022/01/04 11:24:01;;;;;;;2.70;1.10;;;20.30;54.80;;;;;;5043484;28;20041;-73
2022/01/04 11:26:26;;;;;;;3.55;1.23;;;20.30;54.80;;;;;;5038892;28;20642;-73
2022/01/04 11:28:53;;;;;;;5.07;1.27;;;20.30;54.70;;;;;;5041813;28;20056;-71
2022/01/04 11:31:37;;;;;;;2.40;1.13;;;20.40;54.70;;;;;;5041524;28;20565;-71
2022/01/04 11:34:06;;;;;;;1.80;1.08;;;20.30;54.40;;;;;;5040786;28;20045;-72
2022/01/04 11:36:38;;;;;;;2.63;1.08;;;20.30;54.40;;;;;;5046921;28;20106;-69
2022/01/04 11:39:31;;;;;;;4.70;1.20;;;20.30;54.40;;;;;;5040463;28;20060;-70
2022/01/04 11:41:59;;;;;;;2.65;1.02;;;20.30;54.40;;;;;;5042620;28;20053;-69
2022/01/04 11:44:27;;;;;;;1.83;0.93;;;20.30;54.50;;;;;;5031303;28;20037;-69
2022/01/04 11:47:08;;;;;;;3.67;1.13;;;20.30;54.50;;;;;;5040364;28;20044;-68
2022/01/04 11:49:36;;;;;;;3.92;0.98;;;20.30;54.30;;;;;;5040186;28;20037;-67
2022/01/04 11:52:04;;;;;;;3.50;1.20;;;20.30;54.40;;;;;;5041071;28;20044;-68
2022/01/04 11:54:30;;;;;;;2.75;1.08;;;20.30;54.30;;;;;;5038345;28;20083;-68
2022/01/04 11:57:14;;;;;;;1.67;0.90;;;20.30;54.30;;;;;;5037638;28;20083;-69
2022/01/04 11:59:56;;;;;;;3.58;1.10;;;20.30;54.30;;;;;;5039359;28;20624;-68
2022/01/04 12:02:37;;;;;;;3.42;0.90;;;20.30;54.40;;;;;;5040746;28;20049;-68
2022/01/04 12:05:21;;;;;;;2.50;1.00;;;20.30;54.40;;;;;;5040897;28;20037;-67
2022/01/04 12:07:58;;;;;;;4.18;1.15;;;20.30;54.40;;;;;;5040353;28;20148;-69
2022/01/04 12:10:25;;;;;;;3.65;0.90;;;20.30;54.40;;;;;;5040855;28;20128;-67
2022/01/04 12:12:56;;;;;;;3.90;1.23;;;20.30;54.40;;;;;;5040294;28;20063;-67
2022/01/04 12:15:33;;;;;;;2.92;1.10;;;20.30;54.40;;;;;;5041468;28;20079;-68
2022/01/04 12:18:08;;;;;;;2.92;1.02;;;20.30;54.30;;;;;;5038401;28;21077;-68
2022/01/04 12:20:42;;;;;;;4.55;1.40;;;20.30;54.30;;;;;;5043697;28;20036;-67
2022/01/04 12:23:26;;;;;;;3.28;1.10;;;20.40;54.20;;;;;;5025807;28;20045;-67
2022/01/04 12:26:08;;;;;;;3.67;1.05;;;20.30;53.90;;;;;;5037184;28;20132;-70
2022/01/04 12:29:03;;;;;;;2.83;0.80;;;20.30;53.40;;;;;;5037730;28;20057;-66
2022/01/04 12:31:30;;;;;;;9.85;1.50;;;20.30;53.40;;;;;;5034720;28;20131;-69
2022/01/04 12:33:58;;;;;;;15.60;1.60;;;20.40;54.00;;;;;;5039147;28;20548;-73
2022/01/04 13:05:06;;;;;;;17.58;1.80;;;20.50;52.50;;;;;;5164001;27;20362;-66
2022/01/04 13:07:38;;;;;;;16.38;1.60;;;20.50;52.40;;;;;;5161661;27;20153;-68
2022/01/04 13:10:04;;;;;;;7.88;1.35;;;20.50;52.80;;;;;;5127252;27;20111;-67
2022/01/04 13:12:39;;;;;;;13.65;1.60;;;20.50;53.00;;;;;;5152585;27;20043;-68
2022/01/04 13:15:06;;;;;;;17.70;1.42;;;20.50;53.40;;;;;;5142374;27;20375;-69
2022/01/04 13:17:33;;;;;;;11.77;1.37;;;20.50;53.70;;;;;;5148522;27;20050;-66
2022/01/04 13:19:59;;;;;;;12.00;1.20;;;20.50;53.90;;;;;;5145237;27;20370;-67
2022/01/04 13:22:28;;;;;;;10.88;1.50;;;20.50;54.10;;;;;;5152782;27;20102;-68
2022/01/04 13:25:06;;;;;;;7.60;1.48;;;20.60;54.30;;;;;;5125817;27;20393;-65
2022/01/04 13:27:43;;;;;;;8.53;1.53;;;20.60;54.30;;;;;;5151938;27;20023;-66